Time;durP1;ratioP1;P1;durP2;ratioP2;P2;SDS_P1;SDS_P2;PMS_P1;PMS_P2;Temp;Humidity;BMP_temperature;BMP_pressure;BME280_temperature;BME280_humidity;BME280_pressure;Samples;Min_cycle;Max_cycle;Signal;HPM_P1;HPM_P2
2022/01/25 09:55:12;;;;;;;34.10;21.80;;;;;;;1.22;75.71;101554.00;1085860;54;20376;-78
2022/01/25 09:56:17;;;;;;;31.38;22.55;;;;;;;1.14;76.13;101555.97;1084779;54;20425;-78
2022/01/25 09:57:21;;;;;;;30.45;22.27;;;;;;;1.18;76.35;101555.84;1084077;54;20600;-78
2022/01/25 09:58:25;;;;;;;35.15;20.80;;;;;;;1.31;75.70;101553.72;1084193;39;20393;-78
2022/01/25 09:59:30;;;;;;;28.30;19.27;;;;;;;1.40;75.67;101548.16;1084143;54;20046;-78
2022/01/25 10:00:36;;;;;;;30.98;21.38;;;;;;;1.42;75.40;101550.72;1085296;54;20045;-77
2022/01/25 10:01:40;;;;;;;29.95;20.63;;;;;;;1.56;75.25;101550.28;1086181;54;20042;-80
2022/01/25 10:02:51;;;;;;;29.70;21.27;;;;;;;1.61;74.83;101553.63;1085873;54;20073;-78
2022/01/25 10:03:55;;;;;;;27.67;18.80;;;;;;;1.70;74.75;101558.59;1086166;54;20670;-80
2022/01/25 10:05:05;;;;;;;30.25;20.42;;;;;;;1.70;74.43;101555.94;1085891;54;20034;-82
2022/01/25 10:06:15;;;;;;;29.98;20.50;;;;;;;1.66;74.53;101554.34;1086161;54;20064;-79
2022/01/25 10:07:32;;;;;;;29.85;20.80;;;;;;;1.56;75.61;101561.66;1087334;54;20601;-79
2022/01/25 10:08:38;;;;;;;32.50;20.38;;;;;;;1.66;74.97;101553.47;1085849;54;20068;-77
2022/01/25 10:09:41;;;;;;;34.42;22.52;;;;;;;1.61;75.13;101560.69;1085784;54;20019;-78
2022/01/25 10:10:51;;;;;;;38.65;25.23;;;;;;;1.35;76.25;101565.00;1085973;54;20039;-78
2022/01/25 10:11:55;;;;;;;41.08;26.42;;;;;;;1.31;76.22;101560.75;1086430;54;20082;-79
2022/01/25 10:13:07;;;;;;;42.42;27.60;;;;;;;1.17;77.53;101551.50;1087465;39;20408;-79
2022/01/25 10:14:11;;;;;;;40.03;26.13;;;;;;;1.11;77.41;101556.09;1086332;54;20027;-79
2022/01/25 10:15:13;;;;;;;44.20;29.20;;;;;;;1.06;77.66;101559.72;1086162;54;20042;-78
2022/01/25 10:16:20;;;;;;;43.72;27.67;;;;;;;1.05;78.03;101563.25;1084977;54;20038;-81
2022/01/25 10:17:36;;;;;;;45.08;28.73;;;;;;;1.03;78.20;101558.97;1086039;54;20053;-78
2022/01/25 10:18:46;;;;;;;43.10;27.73;;;;;;;1.08;78.10;101557.91;1087212;46;20106;-78
2022/01/25 10:19:48;;;;;;;51.08;27.42;;;;;;;1.08;77.85;101560.53;1084991;39;20464;-79
2022/01/25 10:20:55;;;;;;;44.72;27.20;;;;;;;0.99;78.39;101558.19;1084898;54;20046;-78
2022/01/25 10:22:02;;;;;;;43.75;27.67;;;;;;;1.06;78.20;101556.25;1085145;54;20038;-79
2022/01/25 10:23:10;;;;;;;45.97;29.17;;;;;;;0.99;78.71;101555.56;1085437;54;20587;-79
2022/01/25 10:24:16;;;;;;;45.28;29.40;;;;;;;1.07;78.49;101555.34;1085436;54;20061;-78
2022/01/25 10:25:29;;;;;;;46.40;29.15;;;;;;;1.11;78.27;101556.09;1085689;54;20058;-80
2022/01/25 10:26:39;;;;;;;46.17;28.77;;;;;;;1.05;78.83;101552.72;1086499;54;20065;-80
2022/01/25 10:27:59;;;;;;;46.38;28.90;;;;;;;1.14;78.78;101551.59;1085569;54;20144;-78
2022/01/25 10:29:03;;;;;;;;;;;;;;;1.03;79.22;101553.69;1086510;54;20038;-79
2022/01/25 10:30:08;;;;;;;43.33;27.08;;;;;;;1.21;78.45;101552.28;1086507;54;19938;-82
2022/01/25 10:31:18;;;;;;;42.88;26.27;;;;;;;1.14;78.77;101561.25;1087905;54;20035;-80
2022/01/25 10:32:41;;;;;;;47.47;29.17;;;;;;;1.15;78.73;101552.44;1086359;54;20046;-79
2022/01/25 10:33:52;;;;;;;43.20;28.30;;;;;;;1.16;78.66;101556.81;1085491;54;20584;-79
2022/01/25 10:34:58;;;;;;;48.60;28.65;;;;;;;1.27;78.32;101546.81;1088853;46;20114;-79
2022/01/25 10:36:11;;;;;;;43.13;28.30;;;;;;;1.34;77.99;101547.47;1085661;54;20031;-78
2022/01/25 10:37:23;;;;;;;44.40;28.23;;;;;;;1.26;78.32;101550.34;1086225;39;20473;-78
2022/01/25 10:38:33;;;;;;;42.72;27.30;;;;;;;1.39;78.08;101546.41;1086145;54;20073;-82
2022/01/25 10:39:41;;;;;;;44.28;27.73;;;;;;;1.45;77.64;101550.63;1084483;54;20057;-81
2022/01/25 10:40:43;;;;;;;45.38;27.80;;;;;;;1.55;77.29;101545.91;1086122;54;20038;-81
2022/01/25 10:42:06;;;;;;;42.45;27.92;;;;;;;1.45;77.42;101541.84;1086353;54;20034;-80
2022/01/25 10:43:19;;;;;;;48.30;28.58;;;;;;;1.54;77.27;101545.06;1085040;54;20038;-79
2022/01/25 10:44:50;;;;;;;47.55;29.35;;;;;;;1.46;77.63;101546.22;1085737;54;20035;-77
2022/01/25 10:46:04;;;;;;;;;;;;;;;1.52;77.56;101549.53;1085070;54;20596;-81
2022/01/25 10:47:08;;;;;;;45.67;27.55;;;;;;;1.50;77.24;101550.50;1085580;46;20697;-80
2022/01/25 10:48:14;;;;;;;45.65;29.38;;;;;;;1.45;77.20;101545.38;1085421;39;20503;-81
2022/01/25 10:49:20;;;;;;;50.45;29.85;;;;;;;1.46;77.54;101538.31;1084569;54;20038;-78
2022/01/25 10:50:23;;;;;;;44.72;27.88;;;;;;;1.61;77.25;101545.72;1084554;54;20042;-81
2022/01/25 10:51:38;;;;;;;47.22;27.90;;;;;;;1.66;76.76;101549.06;1086437;54;20033;-78
2022/01/25 10:53:07;;;;;;;40.40;25.20;;;;;;;1.77;76.44;101553.13;1085760;54;20610;-77
2022/01/25 10:54:24;;;;;;;45.50;28.42;;;;;;;1.65;76.55;101539.44;1087754;54;20046;-80
2022/01/25 10:55:39;;;;;;;43.58;27.90;;;;;;;1.65;77.08;101542.06;1088041;54;20031;-78
2022/01/25 10:56:49;;;;;;;44.83;29.00;;;;;;;1.63;76.89;101543.03;1085453;54;20549;-79
2022/01/25 10:57:58;;;;;;;52.35;32.10;;;;;;;1.41;77.78;101549.00;1084427;54;20042;-78
2022/01/25 10:59:04;;;;;;;47.42;30.70;;;;;;;1.51;77.43;101544.31;1084919;54;20026;-79
2022/01/25 11:00:11;;;;;;;47.55;28.52;;;;;;;1.61;77.29;101543.06;1086191;54;20065;-79
2022/01/25 11:01:15;;;;;;;52.22;30.63;;;;;;;1.44;77.63;101546.28;1086860;54;20039;-77
2022/01/25 11:02:23;;;;;;;49.95;30.67;;;;;;;1.40;77.83;101542.88;1085813;54;20038;-78
2022/01/25 11:03:28;;;;;;;54.67;32.30;;;;;;;1.38;78.17;101543.81;1085552;54;20125;-78
2022/01/25 11:04:35;;;;;;;55.65;33.08;;;;;;;1.43;77.91;101541.91;1085552;54;20035;-78
2022/01/25 11:05:39;;;;;;;52.00;32.78;;;;;;;1.63;77.42;101543.88;1085758;54;20038;-78
2022/01/25 11:06:44;;;;;;;44.83;29.00;;;;;;;1.74;76.96;101545.31;1085878;54;20039;-79
2022/01/25 11:07:46;;;;;;;45.28;28.80;;;;;;;1.79;76.75;101543.41;1086656;54;20043;-77
2022/01/25 11:08:57;;;;;;;40.35;26.63;;;;;;;1.83;76.47;101539.72;1086939;39;20410;-78
2022/01/25 11:09:59;;;;;;;49.20;30.00;;;;;;;1.67;77.22;101542.88;1085326;54;20034;-77
2022/01/25 11:11:06;;;;;;;44.63;28.92;;;;;;;1.80;76.71;101551.25;1085050;54;20039;-80
2022/01/25 11:12:15;;;;;;;39.92;26.10;;;;;;;1.94;76.43;101542.00;1085678;46;20057;-79
2022/01/25 11:13:35;;;;;;;45.63;27.75;;;;;;;1.90;76.32;101541.22;1085049;54;20054;-78
2022/01/25 11:16:00;;;;;;;45.97;30.02;;;;;;;1.42;78.04;101531.44;1085142;54;20034;-80
2022/01/25 11:17:04;;;;;;;49.47;32.45;;;;;;;1.48;77.88;101539.13;1085214;54;20034;-80
2022/01/25 11:18:16;;;;;;;50.28;33.33;;;;;;;1.47;77.77;101532.13;1085560;46;20073;-79
2022/01/25 11:19:20;;;;;;;49.92;31.02;;;;;;;1.52;78.04;101538.97;1086075;54;20040;-80
2022/01/25 11:20:21;;;;;;;46.92;29.55;;;;;;;1.63;77.59;101537.78;1085572;54;20038;-80
2022/01/25 11:21:26;;;;;;;48.20;30.98;;;;;;;1.74;77.35;101535.63;1085967;54;20536;-80
2022/01/25 11:22:30;;;;;;;54.35;32.40;;;;;;;1.62;77.34;101534.25;1084818;54;20034;-80
2022/01/25 11:23:34;;;;;;;47.95;32.00;;;;;;;1.74;77.49;101530.38;1084838;54;20038;-79
2022/01/25 11:24:41;;;;;;;54.00;32.22;;;;;;;1.69;77.20;101537.56;1085426;39;21003;-80
2022/01/25 11:25:45;;;;;;;47.22;30.88;;;;;;;1.69;77.59;101537.56;1085808;54;20065;-80
2022/01/25 11:26:51;;;;;;;48.70;30.55;;;;;;;1.89;77.04;101533.38;1085055;39;20558;-79
2022/01/25 11:27:56;;;;;;;43.13;27.50;;;;;;;1.99;76.47;101537.44;1083962;54;20564;-80
2022/01/25 11:29:03;;;;;;;43.70;27.85;;;;;;;2.05;76.45;101533.72;1084522;54;20045;-80
2022/01/25 11:30:13;;;;;;;44.53;27.20;;;;;;;2.08;76.36;101528.34;1087006;54;20037;-79
2022/01/25 11:31:22;;;;;;;42.55;27.80;;;;;;;2.16;76.14;101531.56;1087695;54;20042;-81
2022/01/25 11:32:31;;;;;;;47.55;31.48;;;;;;;2.05;75.76;101528.44;1087350;54;20027;-78
2022/01/25 11:33:37;;;;;;;45.85;30.05;;;;;;;1.98;76.45;101533.94;1088102;39;20286;-81
2022/01/25 11:34:43;;;;;;;47.22;29.42;;;;;;;2.08;76.07;101533.63;1085790;54;20065;-80
2022/01/25 11:35:45;;;;;;;44.58;28.15;;;;;;;2.14;76.01;101530.75;1086486;39;20550;-79
2022/01/25 11:36:55;;;;;;;46.67;30.90;;;;;;;2.06;75.55;101532.81;1084980;54;21109;-81
2022/01/25 11:37:56;;;;;;;47.58;30.58;;;;;;;2.01;75.99;101532.97;1085597;54;20062;-79
2022/01/25 11:39:00;;;;;;;45.10;29.48;;;;;;;2.03;75.92;101529.34;1085783;54;20098;-81
2022/01/25 11:40:06;;;;;;;45.90;29.25;;;;;;;2.06;75.82;101538.09;1086573;54;20045;-84
2022/01/25 11:41:12;;;;;;;43.08;26.23;;;;;;;2.06;75.88;101535.44;1086221;54;20039;-80
2022/01/25 11:42:19;;;;;;;48.08;29.85;;;;;;;2.08;75.99;101538.91;1086589;54;20082;-78
2022/01/25 11:43:23;;;;;;;44.13;28.02;;;;;;;2.12;75.60;101535.22;1085949;54;20038;-81
2022/01/25 11:44:31;;;;;;;46.92;28.35;;;;;;;2.06;75.50;101538.94;1086673;54;20090;-80
2022/01/25 11:45:37;;;;;;;49.88;27.83;;;;;;;2.05;75.48;101544.28;1091689;39;20559;-80
2022/01/25 11:46:44;;;;;;;44.08;28.60;;;;;;;2.01;75.61;101538.25;1087913;39;20446;-80
2022/01/25 11:47:52;;;;;;;43.85;28.17;;;;;;;2.01;75.74;101538.25;1086032;54;20035;-80
2022/01/25 11:48:56;;;;;;;45.17;27.75;;;;;;;2.07;75.59;101540.66;1085694;54;20038;-80
2022/01/25 11:50:03;;;;;;;45.13;27.83;;;;;;;2.08;75.71;101541.53;1086342;54;20045;-80
2022/01/25 11:51:15;;;;;;;41.47;26.42;;;;;;;2.12;75.55;101541.38;1085341;54;20035;-80
2022/01/25 11:52:20;;;;;;;36.97;23.30;;;;;;;2.20;75.53;101545.53;1085554;54;20065;-80
2022/01/25 11:53:26;;;;;;;46.20;30.00;;;;;;;2.15;75.37;101545.69;1085518;47;20640;-80
2022/01/25 11:54:30;;;;;;;44.97;29.55;;;;;;;2.14;75.75;101549.22;1085506;54;20042;-80
2022/01/25 11:55:34;;;;;;;42.10;26.23;;;;;;;2.19;75.39;101542.00;1085427;54;20161;-80
2022/01/25 11:56:40;;;;;;;41.90;27.27;;;;;;;2.24;75.40;101540.06;1085367;54;20093;-81
2022/01/25 11:57:46;;;;;;;38.45;26.00;;;;;;;2.23;75.21;101543.63;1085139;54;20054;-80
2022/01/25 11:59:01;;;;;;;40.30;26.80;;;;;;;2.24;75.02;101539.19;1085354;54;20042;-80
2022/01/25 12:00:09;;;;;;;48.72;30.42;;;;;;;2.12;75.21;101538.75;1085222;54;20064;-80
2022/01/25 12:01:21;;;;;;;45.70;29.65;;;;;;;2.09;75.03;101541.47;1085829;46;20046;-80
2022/01/25 12:02:40;;;;;;;41.78;27.50;;;;;;;2.13;75.38;101539.59;1085303;54;20603;-79
2022/01/25 12:03:46;;;;;;;45.05;28.67;;;;;;;2.05;75.62;101539.84;1085159;54;20102;-79
2022/01/25 12:04:48;;;;;;;44.80;27.85;;;;;;;2.17;75.52;101533.31;1087153;47;20035;-79
2022/01/25 12:06:02;;;;;;;43.95;28.58;;;;;;;2.11;75.10;101536.13;1086891;54;20011;-79
2022/01/25 12:07:24;;;;;;;43.70;28.42;;;;;;;2.08;75.42;101538.91;1087191;54;20014;-80
2022/01/25 12:08:38;;;;;;;41.47;27.13;;;;;;;2.10;75.25;101531.78;1086054;46;20589;-80
2022/01/25 12:09:47;;;;;;;38.53;26.00;;;;;;;2.20;75.00;101527.06;1084930;54;20034;-78
2022/01/25 12:10:54;;;;;;;44.65;28.25;;;;;;;2.13;74.62;101534.31;1083950;54;20837;-80
2022/01/25 12:12:06;;;;;;;40.35;27.42;;;;;;;2.16;74.86;101531.56;1084141;54;20034;-79
2022/01/25 12:13:20;;;;;;;41.83;27.65;;;;;;;1.95;75.32;101534.03;1084025;54;20130;-78
2022/01/25 12:14:28;;;;;;;41.63;27.95;;;;;;;1.97;75.36;101526.94;1084229;54;20035;-79
2022/01/25 12:15:32;;;;;;;47.13;30.25;;;;;;;1.86;75.65;101534.34;1083892;54;20031;-80
2022/01/25 12:16:44;;;;;;;46.42;29.90;;;;;;;1.86;75.89;101531.72;1083708;47;20057;-78
2022/01/25 12:17:48;;;;;;;46.75;30.73;;;;;;;1.76;76.16;101530.31;1085962;54;20038;-80
2022/01/25 12:18:55;;;;;;;45.22;30.00;;;;;;;1.83;76.05;101537.09;1090152;39;20960;-80
2022/01/25 12:20:02;;;;;;;45.30;29.67;;;;;;;1.91;75.89;101535.03;1087627;54;20034;-80
2022/01/25 12:21:04;;;;;;;45.83;31.38;;;;;;;1.66;76.23;101530.63;1087703;54;20023;-80
2022/01/25 12:22:12;;;;;;;47.67;30.38;;;;;;;1.61;76.31;101529.88;1087622;54;20038;-79
2022/01/25 12:23:19;;;;;;;47.30;31.38;;;;;;;1.45;77.16;101526.03;1087577;54;20045;-80
2022/01/25 12:24:25;;;;;;;47.88;31.98;;;;;;;1.34;77.43;101516.69;1087553;54;20039;-80
2022/01/25 12:25:34;;;;;;;53.33;33.40;;;;;;;1.22;77.87;101532.91;1087695;54;20041;-80
2022/01/25 12:27:03;;;;;;;49.15;30.25;;;;;;;1.45;77.49;101519.00;1087540;54;20038;-79
2022/01/25 12:28:12;;;;;;;51.22;31.05;;;;;;;1.51;77.03;101523.22;1087099;54;20042;-79
2022/01/25 12:29:33;;;;;;;52.88;32.17;;;;;;;1.58;77.11;101514.19;1087403;54;20840;-80
2022/01/25 12:30:42;;;;;;;48.08;30.80;;;;;;;1.48;77.03;101520.69;1088990;39;20596;-78
2022/01/25 12:31:44;;;;;;;50.55;31.38;;;;;;;1.53;77.14;101516.97;1087203;54;20045;-77
2022/01/25 12:33:00;;;;;;;46.58;29.35;;;;;;;1.70;76.85;101519.03;1087235;54;20046;-80
2022/01/25 12:34:28;;;;;;;42.95;27.65;;;;;;;1.64;76.81;101513.97;1087168;54;20050;-82
2022/01/25 12:35:45;;;;;;;49.88;31.85;;;;;;;1.70;76.75;101516.41;1087420;54;20030;-79
2022/01/25 12:36:47;;;;;;;50.72;31.40;;;;;;;1.47;77.15;101508.41;1087577;54;20042;-79
2022/01/25 12:38:07;;;;;;;53.42;33.40;;;;;;;1.56;77.13;101513.38;1087559;54;20046;-81
2022/01/25 12:39:15;;;;;;;48.90;31.33;;;;;;;1.62;77.17;101515.78;1087184;54;20049;-80
2022/01/25 12:40:49;;;;;;;52.80;30.95;;;;;;;1.66;76.71;101506.88;1088206;39;20587;-80
2022/01/25 12:41:54;;;;;;;55.13;33.03;;;;;;;1.52;77.26;101509.09;1086061;54;20046;-79
2022/01/25 12:42:57;;;;;;;56.92;35.17;;;;;;;1.42;77.70;101507.72;1086307;54;20038;-80
2022/01/25 12:44:07;;;;;;;55.40;35.35;;;;;;;1.40;77.82;101518.28;1085938;54;20658;-80
2022/01/25 12:45:10;;;;;;;51.75;32.33;;;;;;;1.44;77.81;101505.84;1086118;54;20034;-80
2022/01/25 12:46:19;;;;;;;53.78;34.20;;;;;;;1.61;77.55;101506.16;1086910;54;20054;-80
2022/01/25 12:47:20;;;;;;;52.72;32.60;;;;;;;1.65;76.97;101507.78;1087017;54;20062;-78
2022/01/25 12:48:28;;;;;;;47.50;29.65;;;;;;;1.79;76.87;101502.06;1087246;54;20031;-79
2022/01/25 12:49:32;;;;;;;46.47;29.60;;;;;;;1.89;76.50;101501.72;1085348;54;20043;-78
2022/01/25 12:50:36;;;;;;;50.75;30.45;;;;;;;1.90;76.37;101499.03;1084194;54;20070;-77
2022/01/25 12:51:44;;;;;;;49.58;30.15;;;;;;;1.94;76.13;101502.41;1083862;54;20125;-76
2022/01/25 12:52:46;;;;;;;44.42;29.08;;;;;;;1.99;76.10;101509.25;1084348;54;20042;-78
2022/01/25 12:53:53;;;;;;;45.45;28.55;;;;;;;2.07;76.05;101502.88;1084469;54;20038;-78
2022/01/25 12:54:59;;;;;;;42.20;27.25;;;;;;;2.12;75.73;101511.47;1084231;54;20038;-78
2022/01/25 12:56:06;;;;;;;42.75;27.75;;;;;;;2.14;75.76;101501.75;1085393;54;20038;-77
2022/01/25 12:57:08;;;;;;;49.30;31.08;;;;;;;1.88;76.21;101511.44;1084533;54;20069;-78
2022/01/25 12:58:14;;;;;;;50.05;32.78;;;;;;;1.90;76.45;101509.59;1085720;54;20038;-79
2022/01/25 12:59:21;;;;;;;48.03;31.65;;;;;;;1.93;76.14;101511.28;1086741;54;20018;-79
2022/01/25 13:00:29;;;;;;;54.90;33.88;;;;;;;1.71;76.74;101507.56;1086669;54;20073;-79
2022/01/25 13:01:39;;;;;;;54.30;34.50;;;;;;;1.69;77.13;101511.19;1086212;54;20038;-79
2022/01/25 13:02:42;;;;;;;52.15;32.83;;;;;;;1.67;77.02;101510.38;1086214;54;20038;-78
2022/01/25 13:03:48;;;;;;;51.30;32.90;;;;;;;1.68;77.02;101509.47;1086663;54;20042;-78
2022/01/25 13:04:49;;;;;;;52.53;33.17;;;;;;;1.68;77.07;101510.34;1085891;54;20061;-78
2022/01/25 13:05:57;;;;;;;59.63;33.53;;;;;;;1.54;77.35;101512.56;1085285;54;20046;-80
2022/01/25 13:07:03;;;;;;;49.38;30.75;;;;;;;1.76;77.21;101511.84;1085703;54;20062;-77
2022/01/25 13:08:25;;;;;;;47.72;30.10;;;;;;;1.91;76.54;101506.03;1085437;54;20038;-78
2022/01/25 13:09:34;;;;;;;49.00;30.13;;;;;;;1.96;76.31;101509.38;1085540;54;20035;-78
2022/01/25 13:10:36;;;;;;;45.67;30.60;;;;;;;1.97;76.19;101505.84;1085689;54;20069;-77
2022/01/25 13:11:58;;;;;;;47.60;29.05;;;;;;;2.08;75.76;101504.59;1087094;54;20102;-77
2022/01/25 13:13:11;;;;;;;48.78;29.58;;;;;;;2.06;75.69;101503.78;1086960;54;20030;-78
2022/01/25 13:14:32;;;;;;;54.67;31.88;;;;;;;2.00;75.83;101502.22;1085462;46;20038;-77
2022/01/25 13:15:51;;;;;;;47.03;31.13;;;;;;;1.98;75.88;101497.03;1085799;46;20038;-79
2022/01/25 13:17:00;;;;;;;46.65;29.25;;;;;;;2.04;75.67;101501.19;1085853;54;20038;-79
2022/01/25 13:18:09;;;;;;;44.38;27.63;;;;;;;2.10;75.74;101503.63;1087059;39;20690;-79
2022/01/25 13:19:14;;;;;;;40.90;26.80;;;;;;;2.19;75.47;101499.78;1085187;54;20073;-78
2022/01/25 13:20:24;;;;;;;41.30;25.95;;;;;;;2.23;75.35;101498.78;1087397;54;20046;-80
2022/01/25 13:21:27;;;;;;;43.83;28.05;;;;;;;2.20;75.51;101498.88;1086632;54;20038;-79
2022/01/25 13:22:36;;;;;;;45.08;27.08;;;;;;;2.25;75.58;101496.94;1086332;46;20122;-79
2022/01/25 13:23:54;;;;;;;42.58;27.25;;;;;;;2.23;75.19;101506.69;1086321;54;20038;-79
2022/01/25 13:25:12;;;;;;;49.65;30.90;;;;;;;1.97;76.00;101500.56;1086372;54;20102;-80
2022/01/25 13:26:20;;;;;;;45.80;30.70;;;;;;;2.09;75.76;101511.56;1086843;54;20042;-79
2022/01/25 13:27:26;;;;;;;47.75;29.58;;;;;;;2.09;75.60;101501.91;1086559;39;20464;-80
2022/01/25 13:28:51;;;;;;;44.83;28.38;;;;;;;2.17;75.44;101502.47;1085381;54;20057;-78
2022/01/25 13:31:16;;;;;;;42.30;25.95;;;;;;;2.36;75.20;101495.69;1087079;54;20061;-79
2022/01/25 13:32:28;;;;;;;42.17;25.23;;;;;;;2.41;74.75;101499.00;1087771;54;20392;-79
2022/01/25 13:33:32;;;;;;;40.63;26.60;;;;;;;2.30;74.76;101502.06;1087890;47;20102;-78
2022/01/25 13:34:36;;;;;;;50.13;31.23;;;;;;;2.11;75.67;101496.56;1086168;54;20565;-79
2022/01/25 13:35:47;;;;;;;45.47;29.08;;;;;;;2.20;75.31;101501.50;1087099;47;20065;-79
2022/01/25 13:36:59;;;;;;;50.83;31.98;;;;;;;2.27;75.38;101499.50;1087328;54;20568;-79
2022/01/25 13:38:04;;;;;;;47.53;29.08;;;;;;;2.27;74.93;101497.72;1087048;54;20035;-80
2022/01/25 13:39:15;;;;;;;49.83;30.77;;;;;;;2.27;75.06;101502.16;1086968;54;20061;-80
2022/01/25 13:40:24;;;;;;;48.97;30.90;;;;;;;2.28;75.21;101494.16;1087198;54;20041;-79
2022/01/25 13:41:39;;;;;;;44.70;28.63;;;;;;;2.31;74.88;101487.94;1087449;54;20061;-79
2022/01/25 13:42:45;;;;;;;46.72;28.77;;;;;;;2.32;75.13;101495.78;1087261;54;20110;-78
2022/01/25 13:46:38;;;;;;;44.00;28.50;;;;;;;2.31;75.24;101493.22;1086058;54;20046;-80
2022/01/25 13:47:42;;;;;;;45.53;28.20;;;;;;;2.28;75.33;101488.03;1086248;54;20042;-78
2022/01/25 13:48:47;;;;;;;44.90;28.30;;;;;;;2.34;74.88;101488.69;1086631;54;20106;-80
2022/01/25 13:49:52;;;;;;;45.15;29.02;;;;;;;2.40;74.72;101478.81;1085483;54;20042;-79
2022/01/25 13:50:57;;;;;;;47.83;29.30;;;;;;;2.36;74.94;101479.84;1084626;54;20049;-79
2022/01/25 13:52:01;;;;;;;50.70;30.77;;;;;;;2.37;74.75;101481.56;1084715;46;20065;-78
2022/01/25 13:53:05;;;;;;;43.05;27.65;;;;;;;2.43;74.68;101481.34;1085841;54;20045;-79
2022/01/25 13:54:09;;;;;;;45.97;29.50;;;;;;;2.36;74.71;101479.84;1086728;54;20030;-78
2022/01/25 13:55:14;;;;;;;43.72;28.40;;;;;;;2.40;74.92;101481.44;1086809;54;20042;-81
2022/01/25 13:56:16;;;;;;;42.20;26.88;;;;;;;2.46;74.60;101473.28;1087261;54;20061;-80
2022/01/25 13:57:22;;;;;;;43.15;28.52;;;;;;;2.42;74.78;101480.47;1087728;54;20035;-81
2022/01/25 13:58:32;;;;;;;47.50;31.05;;;;;;;2.29;75.22;101477.41;1087660;54;20034;-80
2022/01/25 13:59:37;;;;;;;55.75;33.28;;;;;;;2.17;75.40;101475.25;1087822;54;20031;-81
2022/01/25 14:00:42;;;;;;;47.58;30.38;;;;;;;2.34;75.35;101478.13;1087979;54;20049;-80
2022/01/25 14:01:46;;;;;;;46.60;29.63;;;;;;;2.43;75.08;101469.00;1087945;47;20014;-80
2022/01/25 14:02:53;;;;;;;47.65;30.05;;;;;;;2.27;74.91;101473.97;1087826;54;20046;-80
2022/01/25 14:03:59;;;;;;;50.20;32.15;;;;;;;2.23;75.18;101460.94;1087616;54;20031;-81
2022/01/25 14:05:07;;;;;;;54.13;35.13;;;;;;;2.02;75.74;101461.69;1087736;54;20062;-81
2022/01/25 14:06:31;;;;;;;54.70;34.00;;;;;;;2.06;76.17;101470.34;1087621;54;20030;-82
2022/01/25 14:07:35;;;;;;;54.97;32.60;;;;;;;2.16;75.88;101463.81;1087882;54;20062;-80
2022/01/25 14:08:42;;;;;;;51.28;33.15;;;;;;;2.18;75.55;101471.66;1087729;54;20066;-81
2022/01/25 14:10:07;;;;;;;52.28;33.15;;;;;;;2.27;75.26;101463.41;1087723;54;20769;-81
2022/01/25 14:11:22;;;;;;;54.85;33.15;;;;;;;2.16;75.64;101462.97;1088890;47;20053;-80
2022/01/25 14:21:56;;;;;;;47.85;30.45;;;;;;;2.42;74.96;101453.22;1087306;54;20027;-81
2022/01/25 14:23:21;;;;;;;43.85;28.40;;;;;;;2.52;74.64;101448.44;1087513;54;20038;-81
2022/01/25 14:24:32;;;;;;;55.72;34.55;;;;;;;2.54;74.53;101457.16;1087268;54;20034;-82
2022/01/25 14:25:39;;;;;;;56.30;35.50;;;;;;;2.61;74.40;101448.09;1087333;54;20030;-80
2022/01/25 14:26:44;;;;;;;53.25;34.22;;;;;;;2.61;74.32;101450.72;1087176;54;20030;-81
2022/01/25 14:27:51;;;;;;;51.70;33.95;;;;;;;2.61;74.23;101454.25;1087088;54;20086;-80
2022/01/25 14:29:06;;;;;;;51.53;33.15;;;;;;;2.58;74.44;101443.78;1086472;54;20035;-80
2022/01/25 14:30:08;;;;;;;47.20;31.88;;;;;;;2.62;74.28;101445.41;1086061;54;20038;-82
2022/01/25 14:31:18;;;;;;;48.97;31.13;;;;;;;2.61;74.40;101443.69;1086567;54;20073;-81
2022/01/25 14:32:33;;;;;;;50.25;31.77;;;;;;;2.46;74.68;101454.81;1087188;54;20034;-81
2022/01/25 14:33:37;;;;;;;50.55;32.47;;;;;;;2.49;74.75;101449.41;1087269;54;20030;-79
2022/01/25 14:34:46;;;;;;;55.70;34.97;;;;;;;2.38;74.88;101447.19;1087151;54;20057;-78
2022/01/25 14:35:53;;;;;;;52.05;32.95;;;;;;;2.44;74.84;101451.38;1087345;54;20034;-79
2022/01/25 14:36:58;;;;;;;53.50;32.80;;;;;;;2.54;74.64;101451.88;1086879;54;20034;-79
2022/01/25 14:38:02;;;;;;;44.55;29.52;;;;;;;2.60;74.44;101451.63;1087487;54;20035;-79
2022/01/25 14:39:09;;;;;;;46.33;30.50;;;;;;;2.47;74.61;101445.97;1089801;31;20509;-78
2022/01/25 14:40:16;;;;;;;44.78;27.98;;;;;;;2.57;74.43;101447.34;1086678;54;20034;-79
2022/01/25 14:41:23;;;;;;;45.20;29.33;;;;;;;2.54;74.38;101451.88;1086956;54;20061;-77
2022/01/25 14:42:28;;;;;;;43.47;29.30;;;;;;;2.60;74.37;101451.63;1086821;54;20050;-78
2022/01/25 14:43:35;;;;;;;43.83;28.75;;;;;;;2.59;74.07;101453.44;1087669;46;20034;-78
2022/01/25 14:44:44;;;;;;;42.25;27.90;;;;;;;2.73;74.12;101457.34;1085968;54;20034;-78
2022/01/25 14:45:45;;;;;;;43.20;27.45;;;;;;;2.69;73.84;101445.16;1086533;54;20065;-78
2022/01/25 14:46:53;;;;;;;43.90;28.63;;;;;;;2.69;73.71;101450.44;1085437;54;20061;-77
2022/01/25 14:47:58;;;;;;;41.55;27.08;;;;;;;2.73;73.81;101458.19;1085560;54;20062;-79
2022/01/25 14:49:07;;;;;;;43.70;28.60;;;;;;;2.62;74.01;101453.31;1085806;54;20181;-78
2022/01/25 14:50:22;;;;;;;41.53;27.25;;;;;;;2.62;73.79;101448.03;1086541;54;20037;-79
2022/01/25 14:51:35;;;;;;;45.17;28.95;;;;;;;2.33;74.43;101450.00;1086612;54;20042;-79
2022/01/25 14:52:39;;;;;;;43.97;29.67;;;;;;;2.18;74.96;101448.78;1086747;54;20046;-79
2022/01/25 14:53:43;;;;;;;46.22;30.27;;;;;;;2.13;75.21;101450.72;1087409;54;20102;-79
2022/01/25 14:54:47;;;;;;;43.05;29.65;;;;;;;2.27;75.09;101450.22;1087474;54;20050;-78
2022/01/25 14:55:51;;;;;;;46.67;31.17;;;;;;;2.35;74.98;101447.31;1087006;54;20015;-78
2022/01/25 14:56:58;;;;;;;41.08;27.25;;;;;;;2.49;74.70;101442.38;1088067;46;20034;-80
2022/01/25 14:59:29;;;;;;;42.28;27.17;;;;;;;2.65;74.00;101447.06;1088042;54;20037;-81
2022/01/25 15:00:33;;;;;;;37.83;25.27;;;;;;;2.69;73.83;101453.97;1087958;54;20038;-80
2022/01/25 15:01:40;;;;;;;43.78;28.92;;;;;;;2.39;74.38;101448.94;1087057;54;20928;-79
2022/01/25 15:02:44;;;;;;;44.00;30.52;;;;;;;2.37;74.88;101450.75;1086902;54;20061;-80
2022/01/25 15:03:53;;;;;;;43.00;29.95;;;;;;;2.27;75.12;101452.84;1087000;54;20829;-79
2022/01/25 15:05:08;;;;;;;45.45;29.65;;;;;;;2.36;74.83;101453.47;1086495;54;20070;-78
2022/01/25 15:06:13;;;;;;;40.25;28.88;;;;;;;2.44;74.97;101448.75;1086573;54;20050;-78
2022/01/25 15:07:20;;;;;;;45.45;30.85;;;;;;;2.30;74.88;101450.13;1085828;54;20038;-80
2022/01/25 15:08:22;;;;;;;46.65;30.25;;;;;;;2.27;75.26;101455.50;1087375;54;20052;-79
2022/01/25 15:09:26;;;;;;;46.47;30.85;;;;;;;2.23;75.44;101461.81;1087300;39;20570;-79
2022/01/25 15:10:31;;;;;;;45.97;30.27;;;;;;;2.36;75.00;101458.75;1087408;54;20041;-79
2022/01/25 15:11:36;;;;;;;46.10;29.15;;;;;;;2.45;74.95;101466.31;1087202;54;20106;-78
2022/01/25 15:12:43;;;;;;;42.83;28.48;;;;;;;2.54;74.55;101455.41;1087637;54;20752;-79
2022/01/25 15:13:45;;;;;;;45.08;29.50;;;;;;;2.53;74.50;101455.44;1089974;31;20505;-79
2022/01/25 15:15:03;;;;;;;46.40;28.60;;;;;;;2.55;74.56;101454.47;1087639;54;20126;-79
2022/01/25 15:16:07;;;;;;;42.60;27.13;;;;;;;2.61;74.49;101463.94;1087593;54;20034;-79
2022/01/25 15:17:12;;;;;;;46.60;31.95;;;;;;;2.61;74.36;101453.38;1085930;54;20777;-79
2022/01/25 15:18:16;;;;;;;54.03;37.13;;;;;;;2.61;74.19;101462.16;1087058;54;20064;-79
2022/01/25 15:19:21;;;;;;;50.13;34.53;;;;;;;2.64;74.36;101464.69;1087709;54;20619;-81
2022/01/25 15:20:23;;;;;;;57.05;38.28;;;;;;;2.61;74.37;101458.66;1087335;46;20098;-82
2022/01/25 15:21:30;;;;;;;63.05;42.92;;;;;;;2.57;74.37;101460.56;1085169;54;20043;-77
2022/01/25 15:22:34;;;;;;;66.30;42.95;;;;;;;2.59;74.55;101461.34;1089682;39;21565;-80
2022/01/25 15:23:36;;;;;;;56.92;37.78;;;;;;;2.56;74.51;101464.09;1086941;54;20114;-78
2022/01/25 15:24:43;;;;;;;54.70;35.63;;;;;;;2.54;74.55;101457.16;1087236;54;20046;-79